createdAt,value
2023-03-27T00:00:17.069Z,100698.88
2023-03-27T00:02:19.443Z,100699.88
2023-03-27T00:04:23.169Z,100695.69
2023-03-27T00:06:25.013Z,100698.84
2023-03-27T00:08:30.089Z,100708.78
2023-03-27T00:10:32.644Z,100704.56
2023-03-27T00:12:34.506Z,100708.25
2023-03-27T00:14:36.345Z,100704.88
2023-03-27T00:16:40.060Z,100701.53
2023-03-27T00:18:41.845Z,100704.38
2023-03-27T00:20:43.908Z,100714.31
2023-03-27T00:22:45.701Z,100708.41
2023-03-27T00:24:49.896Z,100704.88
2023-03-27T00:26:52.218Z,100711.25
2023-03-27T00:28:54.119Z,100711.41
2023-03-27T00:30:59.546Z,100717.81
2023-03-27T00:33:03.030Z,100721.50
2023-03-27T00:35:06.551Z,100717.97
2023-03-27T00:37:08.843Z,100725.91
2023-03-27T00:39:10.644Z,100716.78
2023-03-27T00:41:13.168Z,100719.66
2023-03-27T00:43:20.449Z,100717.63
2023-03-27T00:45:24.587Z,100723.22
2023-03-27T00:47:31.949Z,100730.44
2023-03-27T00:49:37.479Z,100725.03
2023-03-27T00:51:43.057Z,100729.56
2023-03-27T00:53:48.380Z,100730.44
2023-03-27T00:55:53.185Z,100734.97
2023-03-27T00:58:03.479Z,100734.97
2023-03-27T01:00:08.285Z,100740.34
2023-03-27T01:02:12.791Z,100735.81
2023-03-27T01:04:14.901Z,100743.88
2023-03-27T01:06:19.308Z,100744.88
2023-03-27T01:08:22.275Z,100737.66
2023-03-27T01:10:33.539Z,100733.97
2023-03-27T01:12:44.776Z,100733.13
2023-03-27T01:14:59.257Z,100736.66
2023-03-27T01:17:16.416Z,100733.13
2023-03-27T01:19:43.903Z,100738.50
2023-03-27T01:22:23.180Z,100749.25
2023-03-27T01:24:56.372Z,100733.97
2023-03-27T01:27:15.270Z,100734.13
2023-03-27T01:29:26.366Z,100742.19
2023-03-27T01:31:49.771Z,100740.16
2023-03-27T01:34:39.731Z,100741.00
2023-03-27T01:37:03.112Z,100738.31
2023-03-27T01:39:57.146Z,100738.50
2023-03-27T01:42:05.444Z,100741.19
2023-03-27T01:44:15.897Z,100739.34
2023-03-27T01:46:24.031Z,100731.09
2023-03-27T01:48:33.303Z,100736.31
2023-03-27T01:50:42.661Z,100739.53
2023-03-27T01:52:52.943Z,100741.22
2023-03-27T01:55:01.209Z,100750.09
2023-03-27T01:57:09.647Z,100745.41
2023-03-27T01:59:15.134Z,100747.09
2023-03-27T02:01:21.276Z,100758.69
2023-03-27T02:03:27.612Z,100743.25
2023-03-27T02:05:34.444Z,100745.22
2023-03-27T02:07:42.119Z,100758.06
2023-03-27T02:09:49.047Z,100765.28
2023-03-27T02:11:59.567Z,100760.75
2023-03-27T02:14:05.749Z,100773.19
2023-03-27T02:16:12.007Z,100773.19
2023-03-27T02:18:19.309Z,100771.16
2023-03-27T02:20:21.665Z,100766.78
2023-03-27T02:22:38.024Z,100778.41
2023-03-27T02:24:41.252Z,100776.69
2023-03-27T02:26:43.587Z,100782.25
2023-03-27T02:29:16.061Z,100789.50
2023-03-27T02:31:35.059Z,100796.88
2023-03-27T02:33:52.260Z,100798.75
2023-03-27T02:36:03.951Z,100794.50
2023-03-27T02:38:13.839Z,100803.59
2023-03-27T02:40:23.846Z,100804.75
2023-03-27T02:42:36.883Z,100797.00
2023-03-27T02:44:47.895Z,100806.06
2023-03-27T02:46:56.722Z,100808.94
2023-03-27T02:49:04.357Z,100815.31
2023-03-27T02:51:11.282Z,100814.66
2023-03-27T02:53:18.623Z,100822.88
2023-03-27T02:55:24.152Z,100822.03
2023-03-27T02:57:30.106Z,100832.78
2023-03-27T02:59:35.964Z,100823.19
2023-03-27T03:01:40.306Z,100831.28
2023-03-27T03:03:46.325Z,100835.94
2023-03-27T03:05:47.919Z,100830.91
2023-03-27T03:07:51.698Z,100834.59
2023-03-27T03:09:54.374Z,100839.97
2023-03-27T03:11:56.018Z,100840.28
2023-03-27T03:13:58.030Z,100841.59
2023-03-27T03:15:59.737Z,100841.59
2023-03-27T03:18:03.164Z,100850.00
2023-03-27T03:20:05.751Z,100849.47
2023-03-27T03:22:08.219Z,100856.88
2023-03-27T03:24:09.993Z,100859.69
2023-03-27T03:26:12.136Z,100865.41
2023-03-27T03:28:14.124Z,100869.09
2023-03-27T03:30:16.556Z,100869.41
2023-03-27T03:32:19.223Z,100878.47
2023-03-27T03:34:22.373Z,100870.72
2023-03-27T03:36:24.030Z,100871.03
2023-03-27T03:38:25.677Z,100883.63
2023-03-27T03:40:28.114Z,100883.94
2023-03-27T03:42:29.688Z,100893.00
2023-03-27T03:44:31.216Z,100887.94
2023-03-27T03:46:33.021Z,100894.31
2023-03-27T03:48:34.948Z,100890.78
2023-03-27T03:50:38.013Z,100892.81
2023-03-27T03:52:40.275Z,100896.34
2023-03-27T03:54:42.903Z,100898.31
2023-03-27T03:56:45.376Z,100894.78
2023-03-27T03:58:47.282Z,100896.66
2023-03-27T04:00:49.669Z,100890.44
2023-03-27T04:02:51.999Z,100904.72
2023-03-27T04:04:53.776Z,100902.03
2023-03-27T04:06:56.827Z,100907.41
2023-03-27T04:08:58.580Z,100913.59
2023-03-27T04:11:00.283Z,100909.25
2023-03-27T04:13:01.910Z,100914.44
2023-03-27T04:15:04.130Z,100915.59
2023-03-27T04:17:05.827Z,100918.97
2023-03-27T04:19:07.707Z,100920.84
2023-03-27T04:21:10.558Z,100925.69
2023-03-27T04:23:13.900Z,100923.13
2023-03-27T04:25:17.723Z,100927.66
2023-03-27T04:27:19.754Z,100933.22
2023-03-27T04:29:21.382Z,100937.03
2023-03-27T04:31:23.010Z,100940.72
2023-03-27T04:33:24.884Z,100950.78
2023-03-27T04:35:29.155Z,100945.72
2023-03-27T04:37:30.965Z,100945.00
2023-03-27T04:39:34.128Z,100943.34
2023-03-27T04:41:35.984Z,100942.63
2023-03-27T04:43:37.672Z,100945.78
2023-03-27T04:45:39.305Z,100952.00
2023-03-27T04:47:41.454Z,100952.16
2023-03-27T04:49:43.063Z,100950.59
2023-03-27T04:51:45.174Z,100951.78
2023-03-27T04:53:46.739Z,100956.28
2023-03-27T04:55:50.253Z,100961.00
2023-03-27T04:57:51.756Z,100960.28
2023-03-27T04:59:53.723Z,100964.13
2023-03-27T05:01:55.521Z,100961.56
2023-03-27T05:03:57.467Z,100971.50
2023-03-27T05:05:59.111Z,100979.03
2023-03-27T05:08:00.830Z,100978.16
2023-03-27T05:10:02.917Z,100978.31
2023-03-27T05:12:06.691Z,100981.97
2023-03-27T05:14:08.242Z,100983.97
2023-03-27T05:16:10.256Z,100990.50
2023-03-27T05:18:12.207Z,100981.59
2023-03-27T05:20:16.376Z,100988.09
2023-03-27T05:22:18.803Z,100998.84
2023-03-27T05:24:20.832Z,100999.84
2023-03-27T05:26:22.574Z,101000.00
2023-03-27T05:28:25.803Z,100996.63
2023-03-27T05:30:28.820Z,101000.13
2023-03-27T05:32:30.503Z,101007.19
2023-03-27T05:34:32.124Z,101008.06
2023-03-27T05:36:33.982Z,101004.50
2023-03-27T05:38:35.951Z,101010.88
2023-03-27T05:40:38.032Z,101016.94
2023-03-27T05:42:43.649Z,101019.34
2023-03-27T05:44:46.752Z,101025.56
2023-03-27T05:46:48.498Z,101032.63
2023-03-27T05:48:50.463Z,101030.47
2023-03-27T05:50:52.163Z,101037.06
2023-03-27T05:52:57.781Z,101032.13
2023-03-27T05:54:59.901Z,101042.97
2023-03-27T05:57:01.659Z,101042.78
2023-03-27T05:59:03.559Z,101051.78
2023-03-27T06:01:07.259Z,101048.34
2023-03-27T06:03:11.606Z,101044.91
2023-03-27T06:05:13.519Z,101054.06
2023-03-27T06:07:15.562Z,101051.44
2023-03-27T06:09:17.600Z,101047.28
2023-03-27T06:11:19.730Z,101053.91
2023-03-27T06:13:22.030Z,101056.69
2023-03-27T06:15:24.046Z,101059.19
2023-03-27T06:17:29.557Z,101061.25
2023-03-27T06:19:31.205Z,101056.13
2023-03-27T06:21:33.164Z,101061.88
2023-03-27T06:23:34.844Z,101060.56
2023-03-27T06:25:38.633Z,101070.53
2023-03-27T06:27:41.986Z,101073.63
2023-03-27T06:29:43.552Z,101080.06
2023-03-27T06:31:45.706Z,101081.00
2023-03-27T06:33:48.933Z,101080.34
2023-03-27T06:35:53.108Z,101081.53
2023-03-27T06:37:56.067Z,101098.41
2023-03-27T06:39:58.222Z,101094.94
2023-03-27T06:42:00.309Z,101091.72
2023-03-27T06:44:02.127Z,101104.16
2023-03-27T06:46:06.332Z,101110.56
2023-03-27T06:48:15.351Z,101099.06
2023-03-27T06:50:27.083Z,101109.03
2023-03-27T06:52:28.939Z,101110.56
2023-03-27T06:54:30.603Z,101120.84
2023-03-27T06:56:34.225Z,101124.59
2023-03-27T06:58:35.872Z,101124.63
2023-03-27T07:00:39.541Z,101125.53
2023-03-27T07:02:41.615Z,101122.59
2023-03-27T07:04:54.116Z,101126.84
2023-03-27T07:07:05.099Z,101123.88
2023-03-27T07:09:06.682Z,101128.84
2023-03-27T07:11:12.134Z,101135.22
2023-03-27T07:13:14.122Z,101142.34
2023-03-27T07:15:17.223Z,101146.44
2023-03-27T07:17:19.165Z,101152.22
2023-03-27T07:19:20.740Z,101144.50
2023-03-27T07:21:22.524Z,101153.13
2023-03-27T07:23:25.557Z,101139.34
2023-03-27T07:25:29.500Z,101156.22
2023-03-27T07:27:31.158Z,101160.28
2023-03-27T07:29:32.899Z,101154.91
2023-03-27T07:31:54.625Z,101165.53
2023-03-27T07:33:56.195Z,101170.59
2023-03-27T07:35:58.655Z,101173.00
2023-03-27T07:38:02.820Z,101167.25
2023-03-27T07:40:08.992Z,101167.75
2023-03-27T07:42:11.042Z,101170.81
2023-03-27T07:44:12.737Z,101174.31
2023-03-27T07:46:14.790Z,101175.66
2023-03-27T07:48:16.538Z,101178.84
2023-03-27T07:50:21.151Z,101178.63
2023-03-27T07:52:22.974Z,101173.91
2023-03-27T07:54:24.847Z,101180.94
2023-03-27T07:56:28.556Z,101173.66
2023-03-27T07:58:30.349Z,101179.69
2023-03-27T08:00:32.259Z,101180.81
2023-03-27T08:02:34.237Z,101190.44
2023-03-27T08:04:36.502Z,101188.34
2023-03-27T08:06:38.867Z,101188.97
2023-03-27T08:08:41.838Z,101195.84
2023-03-27T08:10:44.911Z,101198.81
2023-03-27T08:12:49.396Z,101194.84
2023-03-27T08:14:51.072Z,101201.34
2023-03-27T08:16:54.356Z,101192.13
2023-03-27T08:18:57.871Z,101190.38
2023-03-27T08:21:01.780Z,101190.84
2023-03-27T08:23:03.826Z,101199.09
2023-03-27T08:25:09.259Z,101195.50
2023-03-27T08:27:15.498Z,101193.56
2023-03-27T08:29:18.830Z,101200.78
2023-03-27T08:31:20.999Z,101203.03
2023-03-27T08:33:22.860Z,101197.34
2023-03-27T08:35:24.796Z,101204.38
2023-03-27T08:37:26.451Z,101216.63
2023-03-27T08:39:28.424Z,101219.72
2023-03-27T08:41:35.701Z,101219.44
2023-03-27T08:43:41.640Z,101216.25
2023-03-27T08:45:50.513Z,101217.19
2023-03-27T08:47:58.788Z,101213.81
2023-03-27T08:50:04.562Z,101222.91
2023-03-27T08:52:12.841Z,101232.44
2023-03-27T08:54:19.189Z,101234.38
2023-03-27T08:56:21.199Z,101243.28
2023-03-27T08:58:23.572Z,101230.81
2023-03-27T09:00:31.614Z,101232.56
2023-03-27T09:02:45.570Z,101240.22
2023-03-27T09:04:53.929Z,101239.03
2023-03-27T09:07:02.812Z,101243.56
2023-03-27T09:09:12.147Z,101234.47
2023-03-27T09:11:29.233Z,101231.22
2023-03-27T09:13:38.156Z,101232.78
2023-03-27T09:15:48.715Z,101235.00
2023-03-27T09:17:58.508Z,101226.31
2023-03-27T09:20:07.162Z,101235.81
2023-03-27T09:22:14.025Z,101244.97
2023-03-27T09:24:29.007Z,101249.03
2023-03-27T09:26:35.065Z,101236.78
2023-03-27T09:28:47.955Z,101248.13
2023-03-27T09:30:50.636Z,101256.25
2023-03-27T09:32:58.903Z,101258.16
2023-03-27T09:35:00.797Z,101262.41
2023-03-27T09:37:03.328Z,101269.13
2023-03-27T09:39:07.818Z,101258.00
2023-03-27T09:41:14.632Z,101257.44
2023-03-27T09:43:22.333Z,101264.78
2023-03-27T09:45:29.678Z,101249.03
2023-03-27T09:47:37.051Z,101253.72
2023-03-27T09:49:45.265Z,101264.81
2023-03-27T09:51:49.401Z,101257.56
2023-03-27T09:53:59.255Z,101263.66
2023-03-27T09:56:03.580Z,101266.22
2023-03-27T09:58:14.682Z,101269.19
2023-03-27T10:00:27.869Z,101281.19
2023-03-27T10:02:31.125Z,101275.38
2023-03-27T10:04:34.219Z,101273.38
2023-03-27T10:06:42.780Z,101270.50
2023-03-27T10:08:47.006Z,101272.56
2023-03-27T10:10:56.133Z,101265.66
2023-03-27T10:13:00.146Z,101272.22
2023-03-27T10:15:03.739Z,101264.69
2023-03-27T10:17:06.385Z,101266.56
2023-03-27T10:19:21.566Z,101270.56
2023-03-27T10:21:30.192Z,101274.16
2023-03-27T10:23:43.539Z,101274.56
2023-03-27T10:25:50.788Z,101261.16
2023-03-27T10:27:53.065Z,101262.19
2023-03-27T10:29:54.635Z,101264.06
2023-03-27T10:31:58.363Z,101259.25
2023-03-27T10:34:04.156Z,101259.69
2023-03-27T10:36:08.597Z,101260.72
2023-03-27T10:38:13.947Z,101267.88
2023-03-27T10:40:20.121Z,101268.50
2023-03-27T10:42:25.305Z,101270.41
2023-03-27T10:44:27.589Z,101272.69
2023-03-27T10:46:30.719Z,101272.50
2023-03-27T10:48:46.178Z,101269.16
2023-03-27T10:50:54.202Z,101269.75
2023-03-27T10:53:06.412Z,101273.13
2023-03-27T10:55:37.094Z,101278.34
2023-03-27T10:57:40.975Z,101276.06
2023-03-27T10:59:47.936Z,101272.91
2023-03-27T11:01:54.829Z,101279.00
2023-03-27T11:04:03.296Z,101276.47
2023-03-27T11:06:12.153Z,101283.41
2023-03-27T11:08:20.180Z,101283.41
2023-03-27T11:10:26.765Z,101277.94
2023-03-27T11:12:33.688Z,101285.09
2023-03-27T11:14:46.161Z,101280.91
2023-03-27T11:16:52.608Z,101281.75
2023-03-27T11:18:58.843Z,101289.72
2023-03-27T11:21:06.814Z,101291.63
2023-03-27T11:23:14.832Z,101279.63
2023-03-27T11:25:22.101Z,101287.19
2023-03-27T11:27:32.976Z,101289.50
2023-03-27T11:29:39.762Z,101290.75
2023-03-27T11:31:43.877Z,101291.59
2023-03-27T11:33:52.093Z,101280.88
2023-03-27T11:36:00.527Z,101287.81
2023-03-27T11:38:07.013Z,101282.56
2023-03-27T11:40:15.451Z,101276.91
2023-03-27T11:42:21.418Z,101275.00
2023-03-27T11:44:26.627Z,101285.91
2023-03-27T11:46:54.798Z,101292.00
2023-03-27T11:49:10.289Z,101282.38
2023-03-27T11:51:26.336Z,101284.66
2023-03-27T11:53:43.167Z,101290.56
2023-03-27T11:56:01.940Z,101288.00
2023-03-27T11:58:19.858Z,101286.34
2023-03-27T12:00:35.266Z,101279.00
2023-03-27T12:03:12.465Z,101287.59
2023-03-27T12:05:23.692Z,101288.25
2023-03-27T12:07:47.646Z,101282.38
2023-03-27T12:10:14.597Z,101283.63
2023-03-27T12:12:50.678Z,101283.41
2023-03-27T12:15:06.132Z,101283.41
2023-03-27T12:17:45.162Z,101283.97
2023-03-27T12:20:25.270Z,101283.56
2023-03-27T12:22:39.608Z,101278.13
2023-03-27T12:24:59.450Z,101284.25
2023-03-27T12:27:27.467Z,101282.34
2023-03-27T12:29:45.457Z,101279.19
2023-03-27T12:32:04.173Z,101268.06
2023-03-27T12:34:15.684Z,101287.63
2023-03-27T12:36:22.151Z,101276.28
2023-03-27T12:38:30.809Z,101276.25
2023-03-27T12:40:40.286Z,101276.91
2023-03-27T12:42:50.441Z,101272.91
2023-03-27T12:45:12.460Z,101268.72
2023-03-27T12:47:22.112Z,101273.56
2023-03-27T12:49:48.383Z,101277.31
2023-03-27T12:52:04.211Z,101272.69
2023-03-27T12:54:16.318Z,101268.72
2023-03-27T12:56:25.820Z,101271.25
2023-03-27T12:58:32.489Z,101272.47
2023-03-27T13:00:36.084Z,101266.16
2023-03-27T13:02:59.782Z,101248.72
2023-03-27T13:05:27.293Z,101258.19
2023-03-27T13:07:38.471Z,101272.06
2023-03-27T13:09:54.124Z,101279.19
2023-03-27T13:12:17.871Z,101270.19
2023-03-27T13:14:37.361Z,101271.00
2023-03-27T13:17:01.009Z,101284.69
2023-03-27T13:19:22.016Z,101275.63
2023-03-27T13:21:37.299Z,101283.41
2023-03-27T13:23:55.146Z,101282.56
2023-03-27T13:26:10.886Z,101282.09
2023-03-27T13:28:31.582Z,101290.66
2023-03-27T13:30:47.125Z,101289.34
2023-03-27T13:33:11.387Z,101290.00
2023-03-27T13:35:33.209Z,101299.81
2023-03-27T13:37:57.782Z,101284.63
2023-03-27T13:40:01.062Z,101284.22
2023-03-27T13:42:08.979Z,101278.78
2023-03-27T13:44:16.092Z,101280.69
2023-03-27T13:46:18.685Z,101275.03
2023-03-27T13:48:44.511Z,101286.78
2023-03-27T13:51:16.525Z,101274.84
2023-03-27T13:53:35.439Z,101280.69
2023-03-27T13:55:56.568Z,101281.69
2023-03-27T13:58:14.594Z,101283.59
2023-03-27T14:00:52.814Z,101279.34
2023-03-27T14:03:38.132Z,101281.44
2023-03-27T14:06:13.118Z,101277.44
2023-03-27T14:08:28.561Z,101273.22
2023-03-27T14:10:47.151Z,101270.00
2023-03-27T14:13:02.152Z,101273.28
2023-03-27T14:15:30.005Z,101274.94
2023-03-27T14:18:01.729Z,101269.19
2023-03-27T14:20:18.788Z,101284.41
2023-03-27T14:22:25.086Z,101290.97
2023-03-27T14:24:32.249Z,101300.16
2023-03-27T14:26:36.359Z,101303.19
2023-03-27T14:28:47.945Z,101302.28
2023-03-27T14:30:49.567Z,101285.50
2023-03-27T14:32:53.036Z,101293.84
2023-03-27T14:34:54.913Z,101293.41
2023-03-27T14:36:57.216Z,101282.28
2023-03-27T14:39:01.138Z,101285.19
2023-03-27T14:41:05.196Z,101272.63
2023-03-27T14:43:13.752Z,101274.53
2023-03-27T14:45:21.737Z,101277.44
2023-03-27T14:47:24.233Z,101282.22
2023-03-27T14:49:35.526Z,101276.78
2023-03-27T14:51:39.746Z,101282.41
2023-03-27T14:53:45.796Z,101276.78
2023-03-27T14:55:50.337Z,101279.69
2023-03-27T14:57:56.472Z,101275.09
2023-03-27T15:00:00.711Z,101276.13
2023-03-27T15:02:08.495Z,101272.78
2023-03-27T15:04:14.481Z,101268.38
2023-03-27T15:06:19.663Z,101274.19
2023-03-27T15:08:24.425Z,101268.09
2023-03-27T15:10:31.143Z,101272.50
2023-03-27T15:12:33.870Z,101259.94
2023-03-27T15:14:38.438Z,101259.47
2023-03-27T15:16:46.284Z,101257.78
2023-03-27T15:18:56.164Z,101253.41
2023-03-27T15:21:02.848Z,101256.53
2023-03-27T15:23:11.779Z,101253.50
2023-03-27T15:25:16.011Z,101246.31
2023-03-27T15:27:23.252Z,101260.06
2023-03-27T15:29:35.305Z,101255.44
2023-03-27T15:31:37.871Z,101252.06
2023-03-27T15:33:50.066Z,101249.72
2023-03-27T15:35:54.454Z,101261.38
2023-03-27T15:37:56.663Z,101266.91
2023-03-27T15:40:02.055Z,101264.75
2023-03-27T15:42:09.601Z,101266.75
2023-03-27T15:44:17.627Z,101269.88
2023-03-27T15:46:20.487Z,101261.81
2023-03-27T15:48:31.522Z,101262.09
2023-03-27T15:50:35.314Z,101261.84
2023-03-27T15:52:37.123Z,101260.44
2023-03-27T15:54:54.092Z,101257.06
2023-03-27T15:57:09.788Z,101258.00
2023-03-27T15:59:15.025Z,101260.44
2023-03-27T16:01:20.244Z,101252.00
2023-03-27T16:03:24.649Z,101258.38
2023-03-27T16:05:26.214Z,101251.44
2023-03-27T16:07:42.292Z,101252.19
2023-03-27T16:09:53.867Z,101261.72
2023-03-27T16:11:57.593Z,101253.09
2023-03-27T16:13:59.545Z,101256.19
2023-03-27T16:16:04.201Z,101254.03
2023-03-27T16:18:18.296Z,101258.81
2023-03-27T16:20:38.894Z,101264.59
2023-03-27T16:22:42.029Z,101262.13
2023-03-27T16:24:43.625Z,101266.63
2023-03-27T16:26:45.228Z,101266.13
2023-03-27T16:28:47.088Z,101266.03
2023-03-27T16:30:48.680Z,101278.25
2023-03-27T16:32:50.339Z,101275.28
2023-03-27T16:34:52.311Z,101267.84
2023-03-27T16:36:54.317Z,101276.69
2023-03-27T16:38:57.472Z,101275.72
2023-03-27T16:41:00.534Z,101268.97
2023-03-27T16:43:02.584Z,101283.22
2023-03-27T16:45:05.102Z,101280.09
2023-03-27T16:47:07.217Z,101289.41
2023-03-27T16:49:11.832Z,101274.72
2023-03-27T16:51:13.799Z,101275.78
2023-03-27T16:53:15.690Z,101279.88
2023-03-27T16:55:21.223Z,101285.00
2023-03-27T16:57:23.079Z,101282.50
2023-03-27T16:59:25.289Z,101280.16
2023-03-27T17:01:27.189Z,101290.50
2023-03-27T17:03:28.826Z,101318.28
2023-03-27T17:05:30.427Z,101337.59
2023-03-27T17:07:32.530Z,101334.75
2023-03-27T17:09:34.592Z,101331.06
2023-03-27T17:11:37.543Z,101324.00
2023-03-27T17:13:42.495Z,101317.59
2023-03-27T17:15:48.719Z,101313.19
2023-03-27T17:17:50.596Z,101314.53
2023-03-27T17:19:52.267Z,101308.97
2023-03-27T17:21:53.859Z,101305.88
2023-03-27T17:23:55.839Z,101319.38
2023-03-27T17:25:59.877Z,101318.66
2023-03-27T17:28:02.940Z,101321.31
2023-03-27T17:30:05.643Z,101322.81
2023-03-27T17:32:07.567Z,101321.63
2023-03-27T17:34:09.761Z,101322.28
2023-03-27T17:36:13.949Z,101322.75
2023-03-27T17:38:15.780Z,101318.03
2023-03-27T17:40:17.804Z,101321.19
2023-03-27T17:42:19.507Z,101320.69
2023-03-27T17:44:23.085Z,101307.66
2023-03-27T17:46:25.113Z,101294.50
2023-03-27T17:48:26.980Z,101292.28
2023-03-27T17:50:28.552Z,101293.47
2023-03-27T17:52:30.434Z,101291.09
2023-03-27T17:54:32.260Z,101294.94
2023-03-27T17:56:34.048Z,101299.81
2023-03-27T17:58:35.635Z,101304.53
2023-03-27T18:00:40.141Z,101294.06
2023-03-27T18:02:43.300Z,101295.91
2023-03-27T18:04:45.457Z,101294.41
2023-03-27T18:06:47.058Z,101279.53
2023-03-27T18:08:49.363Z,101289.63
2023-03-27T18:10:51.312Z,101289.94
2023-03-27T18:12:52.933Z,101285.72
2023-03-27T18:14:54.576Z,101285.88
2023-03-27T18:16:57.825Z,101299.00
2023-03-27T18:18:59.419Z,101303.56
2023-03-27T18:21:01.086Z,101306.53
2023-03-27T18:23:03.129Z,101306.88
2023-03-27T18:25:06.099Z,101314.59
2023-03-27T18:27:07.915Z,101326.19
2023-03-27T18:29:10.444Z,101313.84
2023-03-27T18:31:12.842Z,101314.16
2023-03-27T18:33:15.777Z,101302.16
2023-03-27T18:35:19.416Z,101292.00
2023-03-27T18:37:26.680Z,101289.94
2023-03-27T18:39:28.541Z,101293.94
2023-03-27T18:41:32.946Z,101290.88
2023-03-27T18:43:35.058Z,101296.56
2023-03-27T18:45:36.698Z,101294.38
2023-03-27T18:47:38.819Z,101297.66
2023-03-27T18:49:41.917Z,101312.44
2023-03-27T18:51:43.782Z,101329.06
2023-03-27T18:53:45.520Z,101339.47
2023-03-27T18:55:48.733Z,101341.63
2023-03-27T18:57:50.330Z,101343.78
2023-03-27T18:59:53.318Z,101340.38
2023-03-27T19:01:56.877Z,101341.53
2023-03-27T19:03:59.443Z,101339.16
2023-03-27T19:06:05.288Z,101347.53
2023-03-27T19:08:06.883Z,101344.13
2023-03-27T19:10:09.405Z,101341.75
2023-03-27T19:12:11.518Z,101353.50
2023-03-27T19:14:13.555Z,101346.72
2023-03-27T19:16:17.804Z,101350.72
2023-03-27T19:18:19.393Z,101356.41
2023-03-27T19:20:22.597Z,101368.47
2023-03-27T19:22:25.930Z,101369.75
2023-03-27T19:24:27.766Z,101373.59
2023-03-27T19:26:33.417Z,101380.28
2023-03-27T19:28:35.230Z,101367.13
2023-03-27T19:30:37.367Z,101352.28
2023-03-27T19:32:39.556Z,101345.66
2023-03-27T19:34:43.143Z,101345.13
2023-03-27T19:36:45.061Z,101345.38
2023-03-27T19:38:51.487Z,101338.63
2023-03-27T19:40:53.847Z,101340.63
2023-03-27T19:42:55.406Z,101331.00
2023-03-27T19:44:57.238Z,101324.91
2023-03-27T19:46:59.070Z,101333.16
2023-03-27T19:49:02.846Z,101330.75
2023-03-27T19:51:05.012Z,101328.34
2023-03-27T19:53:09.016Z,101331.03
2023-03-27T19:55:12.328Z,101333.88
2023-03-27T19:57:14.619Z,101331.50
2023-03-27T19:59:29.927Z,101335.31
2023-03-27T20:01:32.361Z,101334.63
2023-03-27T20:03:35.562Z,101334.91
2023-03-27T20:05:38.232Z,101341.41
2023-03-27T20:07:40.137Z,101336.34
2023-03-27T20:09:41.754Z,101337.31
2023-03-27T20:11:45.081Z,101342.88
2023-03-27T20:13:56.216Z,101342.00
2023-03-27T20:15:59.025Z,101345.69
2023-03-27T20:18:00.759Z,101345.69
2023-03-27T20:20:02.554Z,101341.47
2023-03-27T20:22:04.345Z,101344.28
2023-03-27T20:24:07.403Z,101339.91
2023-03-27T20:26:09.129Z,101343.59
2023-03-27T20:28:12.030Z,101354.34
2023-03-27T20:30:13.994Z,101359.00
2023-03-27T20:32:15.614Z,101350.13
2023-03-27T20:34:17.956Z,101347.56
2023-03-27T20:36:19.889Z,101354.78
2023-03-27T20:38:21.520Z,101353.94
2023-03-27T20:40:24.292Z,101355.94
2023-03-27T20:42:26.184Z,101353.22
2023-03-27T20:44:29.681Z,101358.63
2023-03-27T20:46:31.611Z,101354.34
2023-03-27T20:48:33.125Z,101356.22
2023-03-27T20:50:35.379Z,101361.72
2023-03-27T20:52:37.325Z,101361.72
2023-03-27T20:54:39.099Z,101367.22
2023-03-27T20:56:40.694Z,101369.09
2023-03-27T20:58:43.274Z,101359.34
2023-03-27T21:00:46.916Z,101362.03
2023-03-27T21:02:48.644Z,101365.56
2023-03-27T21:04:50.427Z,101355.78
2023-03-27T21:06:53.327Z,101357.63
2023-03-27T21:08:55.167Z,101368.53
2023-03-27T21:10:57.539Z,101360.47
2023-03-27T21:12:59.403Z,101369.53
2023-03-27T21:15:01.269Z,101368.81
2023-03-27T21:17:04.444Z,101357.19
2023-03-27T21:19:19.812Z,101361.59
2023-03-27T21:21:21.930Z,101368.13
2023-03-27T21:23:23.903Z,101366.41
2023-03-27T21:25:25.594Z,101364.72
2023-03-27T21:27:27.575Z,101359.50
2023-03-27T21:29:29.198Z,101358.63
2023-03-27T21:31:30.905Z,101355.25
2023-03-27T21:33:34.087Z,101368.81
2023-03-27T21:35:41.427Z,101363.59
2023-03-27T21:37:45.430Z,101369.13
2023-03-27T21:39:47.020Z,101364.88
2023-03-27T21:41:48.928Z,101367.72
2023-03-27T21:43:50.757Z,101380.28
2023-03-27T21:45:52.580Z,101386.81
2023-03-27T21:47:54.224Z,101376.19
2023-03-27T21:49:57.168Z,101388.94
2023-03-27T21:51:58.763Z,101384.66
2023-03-27T21:54:00.516Z,101394.56
2023-03-27T21:56:02.291Z,101397.53
2023-03-27T21:58:04.191Z,101408.28
2023-03-27T22:00:07.073Z,101398.53
2023-03-27T22:02:08.922Z,101411.13
2023-03-27T22:04:10.605Z,101410.28
2023-03-27T22:06:14.394Z,101407.72
2023-03-27T22:08:16.741Z,101412.22
2023-03-27T22:10:18.542Z,101416.78
2023-03-27T22:12:20.308Z,101422.28
2023-03-27T22:14:22.201Z,101432.16
2023-03-27T22:16:23.913Z,101438.41
2023-03-27T22:18:25.829Z,101446.56
2023-03-27T22:20:27.981Z,101447.59
2023-03-27T22:22:33.340Z,101442.22
2023-03-27T22:24:35.142Z,101440.34
2023-03-27T22:26:39.071Z,101451.09
2023-03-27T22:28:40.629Z,101458.19
2023-03-27T22:30:42.223Z,101452.81
2023-03-27T22:32:43.916Z,101454.63
2023-03-27T22:34:48.261Z,101453.66
2023-03-27T22:36:50.373Z,101457.31
2023-03-27T22:38:53.602Z,101460.16
2023-03-27T22:40:55.442Z,101458.34
2023-03-27T22:42:57.472Z,101455.66
2023-03-27T22:44:59.563Z,101454.78
2023-03-27T22:47:02.669Z,101457.47
2023-03-27T22:49:04.676Z,101459.31
2023-03-27T22:51:08.042Z,101468.22
2023-03-27T22:53:09.561Z,101479.09
2023-03-27T22:55:12.945Z,101495.78
2023-03-27T22:57:14.542Z,101495.66
2023-03-27T22:59:16.458Z,101499.03
2023-03-27T23:01:18.339Z,101494.22
2023-03-27T23:03:21.034Z,101501.31
2023-03-27T23:05:22.664Z,101503.88
2023-03-27T23:07:25.697Z,101502.72
2023-03-27T23:09:27.370Z,101496.38
2023-03-27T23:11:33.121Z,101508.81
2023-03-27T23:13:35.794Z,101517.44
2023-03-27T23:15:37.898Z,101515.47
2023-03-27T23:17:39.697Z,101525.06
2023-03-27T23:19:41.636Z,101533.72
2023-03-27T23:21:43.435Z,101534.44
2023-03-27T23:23:47.743Z,101528.06
2023-03-27T23:25:49.514Z,101536.97
2023-03-27T23:27:52.565Z,101542.22
2023-03-27T23:29:54.087Z,101549.28
2023-03-27T23:31:55.712Z,101554.50
2023-03-27T23:33:57.628Z,101561.59
2023-03-27T23:36:02.234Z,101572.34
2023-03-27T23:38:04.204Z,101572.19
2023-03-27T23:40:07.654Z,101558.91
2023-03-27T23:42:09.296Z,101555.50
2023-03-27T23:44:12.537Z,101559.03
2023-03-27T23:46:16.629Z,101570.78
2023-03-27T23:48:18.309Z,101573.59
2023-03-27T23:50:19.978Z,101576.28
2023-03-27T23:52:22.318Z,101573.88
2023-03-27T23:54:24.302Z,101581.09
2023-03-27T23:56:25.943Z,101584.06
2023-03-27T23:58:29.641Z,101586.75
